Time;durP1;ratioP1;P1;durP2;ratioP2;P2;SDS_P1;SDS_P2;PMS_P1;PMS_P2;Temp;Humidity;BMP_temperature;BMP_pressure;BME280_temperature;BME280_humidity;BME280_pressure;Samples;Min_cycle;Max_cycle;Signal;HPM_P1;HPM_P2
2021/11/20 00:01:39;;;;;;;13.57;7.55;;;;;;;15.06;61.92;102460.97;5052422;28;20064;-62
2021/11/20 00:04:07;;;;;;;12.57;7.75;;;;;;;15.19;61.13;102462.97;5052881;28;20048;-63
2021/11/20 00:06:40;;;;;;;10.63;7.10;;;;;;;15.16;61.65;102449.72;5043308;28;20045;-63
2021/11/20 00:09:10;;;;;;;12.35;6.80;;;;;;;15.33;61.09;102457.47;5038798;28;20060;-64
2021/11/20 00:11:39;;;;;;;9.90;6.95;;;;;;;15.34;59.81;102446.06;5051448;28;20053;-63
2021/11/20 00:14:10;;;;;;;9.85;7.20;;;;;;;15.43;60.68;102447.06;5035167;28;20053;-62
2021/11/20 00:16:39;;;;;;;11.07;7.13;;;;;;;15.63;59.90;102441.16;5035414;28;20053;-66
2021/11/20 00:19:07;;;;;;;11.25;7.13;;;;;;;15.58;59.53;102443.19;5036575;28;20053;-65
2021/11/20 00:21:43;;;;;;;9.25;6.15;;;;;;;15.36;60.44;102446.59;5042246;28;20040;-63
2021/11/20 00:24:22;;;;;;;9.48;6.90;;;;;;;15.50;59.98;102432.75;5053382;28;20052;-64
2021/11/20 00:26:50;;;;;;;10.32;7.40;;;;;;;15.14;60.57;102437.25;5053842;28;20534;-63
2021/11/20 00:29:21;;;;;;;12.55;7.90;;;;;;;14.89;61.01;102435.69;5036741;28;20512;-63
2021/11/20 00:31:58;;;;;;;11.65;7.75;;;;;;;14.99;62.28;102430.00;5018100;28;20071;-63
2021/11/20 00:34:30;;;;;;;10.93;7.82;;;;;;;14.50;63.06;102426.84;5050200;28;20561;-63
2021/11/20 00:36:58;;;;;;;14.23;7.40;;;;;;;14.82;62.04;102432.47;5049456;28;20515;-63
2021/11/20 00:39:29;;;;;;;11.35;8.25;;;;;;;14.91;62.20;102419.56;5083742;28;20051;-63
2021/11/20 00:41:57;;;;;;;10.45;7.88;;;;;;;14.90;62.85;102428.19;5066897;28;20064;-65
2021/11/20 00:44:25;;;;;;;10.57;7.80;;;;;;;15.17;61.80;102423.59;5040487;28;20041;-64
2021/11/20 00:46:53;;;;;;;11.25;8.43;;;;;;;15.32;61.51;102428.06;5049577;28;20049;-64
2021/11/20 00:49:22;;;;;;;12.10;8.25;;;;;;;15.13;61.66;102419.75;5033458;28;20058;-64
2021/11/20 00:51:52;;;;;;;11.63;8.32;;;;;;;15.20;61.75;102409.09;5034510;28;20057;-62
2021/11/20 00:54:20;;;;;;;12.40;8.82;;;;;;;15.06;62.23;102418.53;5034924;28;20041;-65
2021/11/20 00:56:47;;;;;;;11.48;8.30;;;;;;;15.13;62.25;102405.88;5035826;28;20049;-63
2021/11/20 00:59:15;;;;;;;12.80;8.60;;;;;;;14.62;63.04;102416.13;5035547;28;20064;-62
2021/11/20 01:02:09;;;;;;;13.50;8.40;;;;;;;15.36;61.38;102402.16;5032883;28;20062;-64
2021/11/20 01:04:37;;;;;;;12.40;9.00;;;;;;;15.06;61.40;102405.47;5034556;28;20362;-65
2021/11/20 01:07:06;;;;;;;12.63;7.78;;;;;;;15.01;62.42;102399.19;5034875;28;20041;-65
2021/11/20 01:09:40;;;;;;;10.98;7.50;;;;;;;15.20;61.45;102395.22;5033991;28;20060;-63
2021/11/20 01:12:14;;;;;;;11.45;8.65;;;;;;;15.22;61.55;102397.72;5018334;28;20056;-63
2021/11/20 01:14:44;;;;;;;10.07;7.30;;;;;;;15.54;59.85;102395.75;5034960;28;20041;-63
2021/11/20 01:17:13;;;;;;;;;;;;;;;14.68;63.32;102395.50;5047498;28;20053;-62
2021/11/20 01:19:41;;;;;;;14.40;9.82;;;;;;;14.99;62.16;102387.56;5063213;28;19920;-62
2021/11/20 01:22:20;;;;;;;15.70;10.25;;;;;;;14.88;62.43;102386.06;5018313;28;20484;-63
2021/11/20 01:25:08;;;;;;;12.73;9.73;;;;;;;15.19;61.86;102384.41;5019335;28;20046;-64
2021/11/20 01:27:52;;;;;;;14.93;10.07;;;;;;;14.94;62.77;102394.00;5033202;28;20068;-62
2021/11/20 01:30:42;;;;;;;13.45;10.02;;;;;;;14.81;63.55;102380.91;5019665;28;20057;-64
2021/11/20 01:33:12;;;;;;;11.82;9.38;;;;;;;15.11;62.45;102383.19;5062780;28;20072;-63
2021/11/20 01:35:39;;;;;;;14.57;10.38;;;;;;;14.58;63.11;102381.81;5059621;28;20046;-64
2021/11/20 01:38:12;;;;;;;13.90;11.02;;;;;;;14.01;66.06;102376.47;5067235;28;20049;-63
2021/11/20 01:40:46;;;;;;;13.77;10.70;;;;;;;14.97;63.43;102373.97;5067309;28;20153;-64
2021/11/20 01:43:27;;;;;;;14.15;10.68;;;;;;;14.64;62.51;102375.88;5049854;28;20401;-63
2021/11/20 01:45:59;;;;;;;15.10;11.52;;;;;;;14.26;65.25;102370.63;5032713;28;20049;-62
2021/11/20 01:48:56;;;;;;;18.58;13.20;;;;;;;14.08;65.58;102368.63;5036992;28;20048;-62
2021/11/20 01:51:31;;;;;;;20.98;14.65;;;;;;;13.71;65.25;102372.09;5064805;28;20044;-62
2021/11/20 01:54:25;;;;;;;20.25;14.18;;;;;;;14.32;65.49;102366.66;5020544;28;20060;-62
2021/11/20 01:57:57;;;;;;;17.60;13.50;;;;;;;14.81;64.30;102368.97;5037893;28;20497;-65
2021/11/20 02:00:39;;;;;;;15.93;12.23;;;;;;;14.87;63.67;102363.03;5059338;28;20063;-62
2021/11/20 02:03:18;;;;;;;17.08;12.38;;;;;;;14.90;63.37;102351.34;5060340;28;20055;-62
2021/11/20 02:05:58;;;;;;;16.10;13.13;;;;;;;14.99;62.92;102354.25;5041867;28;20080;-64
2021/11/20 02:08:42;;;;;;;16.42;12.93;;;;;;;15.16;62.48;102355.34;5056200;28;20057;-63
2021/11/20 02:11:33;;;;;;;15.05;11.70;;;;;;;15.33;61.07;102350.03;5055308;28;20048;-63
2021/11/20 02:14:03;;;;;;;16.30;12.82;;;;;;;15.64;60.87;102359.44;5054500;28;20049;-65
2021/11/20 02:16:38;;;;;;;14.50;12.20;;;;;;;15.08;61.01;102353.25;5052728;28;20045;-63
2021/11/20 02:19:10;;;;;;;15.50;12.13;;;;;;;14.54;63.58;102361.34;5052157;28;20052;-63
2021/11/20 02:21:50;;;;;;;14.63;11.98;;;;;;;14.78;63.11;102361.25;5040272;28;20072;-64
2021/11/20 02:24:18;;;;;;;16.15;11.73;;;;;;;14.65;63.56;102358.13;5051916;28;20061;-62
2021/11/20 02:27:08;;;;;;;16.77;12.82;;;;;;;14.89;62.56;102349.69;5044914;28;20048;-64
2021/11/20 02:29:44;;;;;;;16.73;12.38;;;;;;;14.69;62.96;102363.91;5034740;28;20056;-63
2021/11/20 02:32:22;;;;;;;18.83;13.75;;;;;;;14.47;63.20;102352.59;5035618;28;20068;-65
2021/11/20 02:34:57;;;;;;;16.67;13.05;;;;;;;14.20;64.83;102344.06;5050845;28;20061;-63
2021/11/20 02:37:28;;;;;;;17.88;13.45;;;;;;;14.57;63.91;102341.34;5054288;28;20068;-62
2021/11/20 02:39:56;;;;;;;16.50;14.23;;;;;;;14.65;62.23;102329.56;5061349;28;20041;-65
2021/11/20 02:42:24;;;;;;;18.83;13.80;;;;;;;14.49;63.90;102339.22;5065082;28;20049;-62
2021/11/20 02:45:27;;;;;;;17.50;13.77;;;;;;;14.20;65.42;102335.75;5070001;28;20416;-64
2021/11/20 02:47:57;;;;;;;18.77;13.50;;;;;;;14.36;63.30;102340.00;5059394;28;20238;-66
2021/11/20 02:50:37;;;;;;;17.70;13.30;;;;;;;13.75;64.40;102333.56;5059078;28;20045;-63
2021/11/20 02:53:14;;;;;;;15.05;12.25;;;;;;;14.22;64.61;102336.28;5054765;28;20053;-65
2021/11/20 02:55:48;;;;;;;15.57;12.00;;;;;;;14.42;63.90;102327.69;5035150;28;20052;-63
2021/11/20 02:58:18;;;;;;;19.90;12.70;;;;;;;14.13;63.95;102329.75;5052580;28;20053;-66
2021/11/20 03:01:03;;;;;;;16.27;11.93;;;;;;;14.34;64.40;102323.66;5034107;28;20373;-65
2021/11/20 03:03:31;;;;;;;17.67;11.63;;;;;;;14.60;63.04;102321.31;5051783;28;20045;-64
2021/11/20 03:06:00;;;;;;;17.17;12.82;;;;;;;13.72;63.50;102315.59;5018973;28;20041;-63
2021/11/20 03:08:27;;;;;;;16.10;12.57;;;;;;;13.51;67.47;102312.25;5051549;28;20061;-65
2021/11/20 03:10:59;;;;;;;14.27;11.05;;;;;;;13.71;66.79;102307.59;5041367;28;20060;-62
2021/11/20 03:13:28;;;;;;;15.38;12.13;;;;;;;13.92;65.93;102311.75;5019116;28;20405;-64
2021/11/20 03:15:56;;;;;;;16.08;12.00;;;;;;;14.05;65.22;102308.25;5051199;28;20056;-65
2021/11/20 03:18:23;;;;;;;17.73;12.70;;;;;;;13.98;64.90;102302.25;5037674;28;20052;-64
2021/11/20 03:20:51;;;;;;;16.40;12.63;;;;;;;13.17;64.82;102300.47;5053225;28;20492;-63
2021/11/20 03:23:22;;;;;;;17.20;11.85;;;;;;;12.84;68.95;102300.47;5054789;28;20068;-63
2021/11/20 03:25:50;;;;;;;17.92;11.00;;;;;;;13.68;67.07;102292.41;5054333;28;20062;-64
2021/11/20 03:28:18;;;;;;;13.70;9.35;;;;;;;13.90;65.23;102289.06;5038609;28;20424;-62
2021/11/20 03:30:48;;;;;;;13.40;9.93;;;;;;;13.90;65.70;102289.06;5053046;28;20523;-64
2021/11/20 03:33:16;;;;;;;12.48;9.55;;;;;;;13.72;64.64;102282.34;5055864;28;20056;-62
2021/11/20 03:35:44;;;;;;;14.30;10.40;;;;;;;14.14;64.54;102273.22;5054456;28;20056;-65
2021/11/20 03:38:24;;;;;;;12.98;9.63;;;;;;;14.27;63.41;102278.88;5040113;28;20405;-63
2021/11/20 03:40:51;;;;;;;16.88;9.98;;;;;;;14.51;63.58;102273.22;5054682;28;20056;-63
2021/11/20 03:43:21;;;;;;;12.13;8.73;;;;;;;14.83;61.68;102267.69;5054851;28;20055;-65
2021/11/20 03:45:50;;;;;;;;;;;;;;;14.96;61.30;102266.06;5051754;28;20049;-63
2021/11/20 03:48:18;;;;;;;12.52;8.65;;;;;;;14.60;61.39;102257.53;5034552;28;19932;-62
2021/11/20 03:50:47;;;;;;;14.55;8.95;;;;;;;14.70;60.95;102251.81;5052920;28;20053;-63
2021/11/20 03:53:14;;;;;;;14.05;8.88;;;;;;;14.74;61.33;102254.78;5072216;28;20436;-62
2021/11/20 03:55:44;;;;;;;11.48;8.60;;;;;;;14.56;62.41;102243.44;5066134;28;20060;-64
2021/11/20 03:58:14;;;;;;;12.02;8.82;;;;;;;14.87;61.97;102254.03;5051015;28;20060;-62
2021/11/20 04:00:45;;;;;;;11.57;8.33;;;;;;;14.67;62.25;102241.31;5035920;28;20072;-64
2021/11/20 04:03:20;;;;;;;10.15;7.07;;;;;;;15.05;60.82;102244.78;5054024;28;20044;-62
2021/11/20 04:05:49;;;;;;;11.50;7.90;;;;;;;14.76;61.64;102235.91;5053890;28;20045;-63
2021/11/20 04:08:17;;;;;;;10.90;8.25;;;;;;;14.46;61.67;102238.09;5053878;28;20057;-65
2021/11/20 04:10:54;;;;;;;11.25;7.65;;;;;;;14.76;61.98;102235.91;5048721;28;20497;-64
2021/11/20 04:13:22;;;;;;;11.20;7.63;;;;;;;14.18;62.02;102221.59;5033707;28;20120;-64
2021/11/20 04:15:50;;;;;;;11.00;8.43;;;;;;;13.91;62.80;102221.47;5033992;28;20101;-63
2021/11/20 04:18:18;;;;;;;11.30;8.10;;;;;;;14.23;64.20;102215.97;5043822;28;20071;-63
2021/11/20 04:20:46;;;;;;;11.55;8.73;;;;;;;14.78;61.53;102217.00;5032571;28;20058;-63
2021/11/20 04:23:16;;;;;;;12.68;9.38;;;;;;;14.08;62.90;102219.81;5050826;28;20061;-67
2021/11/20 04:25:44;;;;;;;12.60;9.27;;;;;;;13.76;65.61;102216.97;5019632;28;20050;-64
2021/11/20 04:28:12;;;;;;;12.48;8.90;;;;;;;13.95;64.01;102206.72;5053303;28;20045;-65
2021/11/20 04:30:43;;;;;;;11.50;8.57;;;;;;;13.70;64.75;102204.31;5052825;28;20045;-61
2021/11/20 04:33:11;;;;;;;11.23;8.77;;;;;;;13.96;64.69;102200.06;5053261;28;20071;-65
2021/11/20 04:35:40;;;;;;;9.82;6.78;;;;;;;14.44;63.32;102197.91;5086859;28;20053;-65
2021/11/20 04:38:09;;;;;;;9.37;7.03;;;;;;;14.56;61.70;102199.09;5045417;28;20046;-62
2021/11/20 04:40:39;;;;;;;13.00;6.82;;;;;;;13.99;64.05;102195.84;5079076;28;20045;-63
2021/11/20 04:43:07;;;;;;;9.25;6.68;;;;;;;13.41;64.04;102204.41;5033540;28;20420;-63
2021/11/20 04:45:37;;;;;;;9.63;7.00;;;;;;;13.24;64.83;102204.09;5033075;28;20052;-64
2021/11/20 04:48:06;;;;;;;9.57;7.03;;;;;;;13.27;66.27;102202.66;5050136;28;20061;-62
2021/11/20 04:50:45;;;;;;;9.20;6.88;;;;;;;13.55;65.69;102199.81;5052465;28;20057;-63
2021/11/20 04:53:13;;;;;;;9.63;6.63;;;;;;;13.74;64.73;102199.00;5033510;28;20417;-63
2021/11/20 04:55:42;;;;;;;9.07;5.72;;;;;;;14.12;63.28;102181.25;5050677;28;20057;-63
2021/11/20 04:58:12;;;;;;;7.60;5.40;;;;;;;13.95;62.56;102186.47;5061039;28;20046;-63
2021/11/20 05:00:52;;;;;;;7.03;4.80;;;;;;;13.90;63.08;102192.94;5049593;28;20513;-62
2021/11/20 05:03:26;;;;;;;6.30;4.47;;;;;;;14.24;62.80;102184.38;5033220;28;20129;-64
2021/11/20 05:05:55;;;;;;;6.82;5.13;;;;;;;13.82;61.81;102182.53;5033371;28;20054;-65
2021/11/20 05:08:24;;;;;;;6.77;4.93;;;;;;;14.30;62.40;102174.88;5066878;28;20068;-64
2021/11/20 05:11:02;;;;;;;7.45;5.30;;;;;;;13.76;62.98;102180.13;5069443;28;20053;-63
2021/11/20 05:13:40;;;;;;;9.38;5.53;;;;;;;14.07;62.68;102182.13;5024003;28;20444;-63
2021/11/20 05:16:08;;;;;;;7.15;5.10;;;;;;;14.49;61.47;102184.78;5037756;28;20417;-64
2021/11/20 05:18:35;;;;;;;6.88;4.70;;;;;;;14.50;61.17;102177.31;5033283;28;20050;-65
2021/11/20 05:21:10;;;;;;;7.68;5.00;;;;;;;14.87;60.44;102182.69;5040707;28;20057;-64
2021/11/20 05:23:38;;;;;;;6.60;4.57;;;;;;;15.05;59.57;102181.78;5017262;28;20065;-63
2021/11/20 05:26:08;;;;;;;7.00;4.50;;;;;;;15.39;58.47;102175.81;5027378;28;20060;-63
2021/11/20 05:28:36;;;;;;;7.05;4.85;;;;;;;14.67;60.49;102172.00;5069463;28;20072;-63
2021/11/20 05:31:04;;;;;;;6.40;4.80;;;;;;;14.98;59.85;102175.81;5052810;28;20053;-62
2021/11/20 05:33:41;;;;;;;7.13;4.60;;;;;;;14.61;60.48;102174.03;5047419;28;20053;-64
2021/11/20 05:36:13;;;;;;;6.28;4.20;;;;;;;14.47;61.01;102166.84;5055607;28;20131;-62
2021/11/20 05:38:41;;;;;;;6.60;4.55;;;;;;;14.68;59.63;102170.06;5038526;28;20044;-64
2021/11/20 05:41:10;;;;;;;7.10;4.57;;;;;;;14.40;61.31;102158.09;5037169;28;20053;-66
2021/11/20 05:43:44;;;;;;;7.80;5.65;;;;;;;14.44;60.66;102175.72;5052564;28;20050;-62
2021/11/20 05:46:24;;;;;;;9.32;5.45;;;;;;;14.08;61.93;102169.13;5021934;28;20057;-65
2021/11/20 05:48:54;;;;;;;8.45;5.82;;;;;;;14.67;60.44;102169.22;5028544;28;20065;-64
2021/11/20 05:51:23;;;;;;;8.77;5.72;;;;;;;14.56;60.14;102162.19;5056261;28;20064;-65
2021/11/20 05:53:51;;;;;;;8.80;5.95;;;;;;;14.90;59.91;102168.22;5051836;28;20048;-62
2021/11/20 05:56:20;;;;;;;8.75;6.53;;;;;;;15.07;58.69;102168.44;5040056;28;20045;-64
2021/11/20 05:59:09;;;;;;;9.65;6.55;;;;;;;14.67;60.15;102169.22;5044069;28;20049;-62
2021/11/20 06:01:38;;;;;;;10.40;7.78;;;;;;;14.58;59.28;102160.78;5036474;28;20531;-62
2021/11/20 06:04:05;;;;;;;10.55;6.63;;;;;;;14.93;59.23;102161.22;5053098;28;20053;-65
2021/11/20 06:06:33;;;;;;;8.48;6.15;;;;;;;14.90;58.71;102162.69;5089589;28;20053;-65
2021/11/20 06:09:03;;;;;;;9.25;6.07;;;;;;;14.38;59.05;102160.34;5062891;28;20166;-63
2021/11/20 06:11:33;;;;;;;8.90;6.05;;;;;;;14.56;60.35;102162.19;5059679;28;20052;-66
2021/11/20 06:14:00;;;;;;;10.00;6.75;;;;;;;13.88;62.33;102161.94;5059727;28;20053;-63
2021/11/20 06:16:37;;;;;;;8.80;6.30;;;;;;;14.69;60.47;102164.19;5055981;28;20048;-63
2021/11/20 06:19:04;;;;;;;7.05;5.13;;;;;;;14.95;59.42;102168.13;5055735;28;20075;-64
2021/11/20 06:21:33;;;;;;;8.40;5.28;;;;;;;13.61;61.35;102175.66;5039774;28;20052;-62
2021/11/20 06:24:02;;;;;;;;;;;;;;;14.20;61.85;102167.53;5040608;28;20501;-63
2021/11/20 06:26:31;;;;;;;9.15;5.00;;;;;;;14.66;59.79;102167.59;5035790;28;19921;-63
2021/11/20 06:28:58;;;;;;;6.05;4.22;;;;;;;14.67;60.06;102160.91;5045767;28;20053;-64
2021/11/20 06:31:27;;;;;;;7.22;4.70;;;;;;;14.88;59.26;102162.16;5035440;28;20053;-64
2021/11/20 06:34:14;;;;;;;8.15;4.95;;;;;;;14.10;61.44;102162.16;5063538;28;20190;-63
2021/11/20 06:36:53;;;;;;;;;;;;;;;14.06;61.96;102179.66;5043301;28;20053;-64
2021/11/20 06:39:44;;;;;;;7.03;4.72;;;;;;;14.30;61.20;102170.16;5074323;28;19920;-63
2021/11/20 06:42:16;;;;;;;8.68;4.90;;;;;;;14.35;61.04;102169.22;5021709;28;20048;-65
2021/11/20 06:44:44;;;;;;;8.65;5.50;;;;;;;13.92;62.55;102156.63;5048778;28;20690;-62
2021/11/20 06:47:12;;;;;;;8.05;5.45;;;;;;;13.25;64.64;102161.44;5069908;28;20045;-62
2021/11/20 06:49:41;;;;;;;7.75;5.63;;;;;;;13.78;63.89;102155.72;5020194;28;20397;-63
2021/11/20 06:52:09;;;;;;;7.70;5.10;;;;;;;14.42;60.96;102153.88;5036899;28;20068;-64
2021/11/20 06:54:55;;;;;;;7.55;4.82;;;;;;;14.75;60.27;102151.84;5066689;28;20044;-64
2021/11/20 07:00:28;;;;;;;8.45;5.70;;;;;;;14.83;59.63;102142.84;5054698;28;20053;-67
2021/11/20 07:03:28;;;;;;;8.82;5.93;;;;;;;14.15;61.91;102139.91;5049653;28;20061;-65
2021/11/20 07:06:39;;;;;;;8.98;6.15;;;;;;;14.55;60.80;102128.13;5035109;28;20129;-65
2021/11/20 07:09:09;;;;;;;7.63;5.18;;;;;;;15.00;59.39;102122.78;5056644;28;20064;-63
2021/11/20 07:11:37;;;;;;;9.02;5.60;;;;;;;15.22;58.54;102132.03;5085668;28;20053;-61
2021/11/20 07:14:06;;;;;;;7.72;5.35;;;;;;;15.31;58.20;102121.84;5038986;28;20061;-63
2021/11/20 07:16:35;;;;;;;8.53;6.47;;;;;;;15.61;57.10;102118.41;5032856;28;20049;-64
2021/11/20 07:19:04;;;;;;;10.13;6.72;;;;;;;15.45;57.70;102127.38;5043661;28;20049;-65
2021/11/20 07:21:50;;;;;;;8.65;6.80;;;;;;;15.53;57.60;102135.00;5073732;28;20065;-64
2021/11/20 07:24:37;;;;;;;13.70;8.25;;;;;;;15.46;57.77;102140.16;5041040;28;20491;-63
2021/11/20 07:27:07;;;;;;;11.88;8.82;;;;;;;14.38;60.17;102140.94;5035588;28;20057;-62
2021/11/20 07:29:35;;;;;;;13.30;8.52;;;;;;;14.19;61.41;102146.47;5051775;28;20058;-64
2021/11/20 07:32:05;;;;;;;12.82;7.88;;;;;;;13.97;62.42;102146.28;5047343;28;20063;-65
2021/11/20 07:34:33;;;;;;;12.45;7.47;;;;;;;14.27;61.23;102147.75;5054487;28;20063;-63
2021/11/20 07:37:00;;;;;;;9.93;6.65;;;;;;;14.11;61.46;102146.34;5041985;28;20057;-63
2021/11/20 07:39:30;;;;;;;10.93;7.13;;;;;;;14.74;60.08;102150.22;5045468;28;20045;-64
2021/11/20 07:41:58;;;;;;;9.57;6.55;;;;;;;14.87;59.50;102154.16;5036340;28;20065;-64
2021/11/20 07:44:26;;;;;;;10.23;6.50;;;;;;;15.12;58.62;102150.84;5031980;28;20049;-63
2021/11/20 07:46:54;;;;;;;12.80;8.05;;;;;;;14.10;60.79;102144.69;5057809;28;20049;-63
2021/11/20 07:49:27;;;;;;;14.48;7.50;;;;;;;14.55;60.24;102149.47;5065439;28;20437;-63
2021/11/20 07:51:55;;;;;;;12.55;7.45;;;;;;;14.81;59.16;102152.59;5054330;28;20527;-64
2021/11/20 07:54:23;;;;;;;12.23;7.90;;;;;;;14.85;59.50;102157.25;5054189;28;20397;-64
2021/11/20 07:57:09;;;;;;;10.68;7.22;;;;;;;15.30;58.42;102161.03;5055342;28;20389;-62
2021/11/20 07:59:39;;;;;;;12.07;7.60;;;;;;;15.23;58.34;102161.44;5053999;28;20057;-62
2021/11/20 08:02:25;;;;;;;10.85;8.00;;;;;;;15.27;58.17;102154.13;5069803;28;20048;-66
2021/11/20 08:04:53;;;;;;;12.07;8.70;;;;;;;15.16;57.82;102155.50;5074114;28;20063;-63
2021/11/20 08:07:37;;;;;;;14.40;9.70;;;;;;;14.95;59.33;102157.03;5074414;28;20060;-63
2021/11/20 08:10:16;;;;;;;11.90;7.55;;;;;;;15.22;58.36;102156.22;5057702;28;20056;-63
2021/11/20 08:12:46;;;;;;;10.57;7.55;;;;;;;15.22;58.38;102156.22;5075235;28;20056;-64
2021/11/20 08:15:33;;;;;;;10.82;7.80;;;;;;;15.12;58.79;102157.22;5047184;28;20060;-63
2021/11/20 08:18:27;;;;;;;16.58;8.32;;;;;;;15.30;58.12;102153.53;5067173;28;20499;-65
2021/11/20 08:21:25;;;;;;;10.98;7.72;;;;;;;15.17;58.69;102150.75;5070374;28;20059;-64
2021/11/20 08:23:58;;;;;;;11.10;8.18;;;;;;;15.12;58.35;102150.84;5075181;28;20052;-64
2021/11/20 08:26:35;;;;;;;11.07;7.60;;;;;;;15.10;60.92;102142.84;5057354;28;20053;-64
2021/11/20 08:29:08;;;;;;;13.60;8.65;;;;;;;14.77;61.44;102138.50;5073891;28;20050;-61
2021/11/20 08:31:41;;;;;;;12.23;9.07;;;;;;;14.65;60.83;102146.50;5035953;28;20047;-61
2021/11/20 08:34:23;;;;;;;13.43;9.45;;;;;;;14.28;61.45;102135.53;5052271;28;20049;-62
2021/11/20 08:37:13;;;;;;;21.02;16.15;;;;;;;14.05;60.99;102136.47;5034186;28;20409;-60
2021/11/20 08:39:45;;;;;;;21.70;13.57;;;;;;;13.94;62.17;102129.44;5055477;28;20049;-61
2021/11/20 08:42:15;;;;;;;15.98;10.57;;;;;;;13.97;62.47;102121.34;5051630;28;20416;-62
2021/11/20 08:44:43;;;;;;;14.93;10.40;;;;;;;14.27;61.64;102120.88;5029808;28;20052;-63
2021/11/20 08:47:16;;;;;;;15.52;10.27;;;;;;;14.62;60.63;102111.91;5050529;28;20523;-63
2021/11/20 08:49:45;;;;;;;13.00;9.20;;;;;;;14.89;59.85;102108.31;5040636;28;20049;-63
2021/11/20 08:52:14;;;;;;;19.42;13.40;;;;;;;15.09;59.64;102102.34;5029602;28;20057;-63
2021/11/20 08:54:43;;;;;;;14.02;9.90;;;;;;;15.04;59.11;102110.78;5032756;28;20048;-63
2021/11/20 08:57:11;;;;;;;13.93;9.70;;;;;;;14.93;59.68;102103.78;5043266;28;20523;-64
2021/11/20 08:59:40;;;;;;;12.77;9.30;;;;;;;14.90;60.45;102101.66;5041885;28;20048;-64
2021/11/20 09:03:19;;;;;;;14.40;8.98;;;;;;;14.93;59.42;102092.69;5055074;28;20055;-63
2021/11/20 09:05:56;;;;;;;13.75;9.30;;;;;;;14.85;60.11;102096.19;5005507;28;20068;-64
2021/11/20 09:08:52;;;;;;;12.20;8.68;;;;;;;14.84;60.00;102089.00;5059706;28;20125;-64
2021/11/20 09:11:33;;;;;;;11.48;8.20;;;;;;;14.80;59.89;102090.75;5049561;28;20056;-63
2021/11/20 09:14:17;;;;;;;11.43;8.13;;;;;;;15.14;59.14;102081.97;5062856;28;20364;-64
2021/11/20 09:17:03;;;;;;;12.07;8.60;;;;;;;15.38;59.02;102072.25;5037528;28;20132;-64
2021/11/20 09:19:32;;;;;;;13.07;8.53;;;;;;;15.34;58.52;102071.22;5039425;28;20542;-65
2021/11/20 09:22:02;;;;;;;14.77;8.27;;;;;;;15.58;58.36;102077.38;5087118;28;20053;-64
2021/11/20 09:24:35;;;;;;;12.52;9.27;;;;;;;15.00;59.40;102079.22;5046864;28;20064;-64
2021/11/20 09:27:34;;;;;;;12.80;8.25;;;;;;;15.46;58.39;102076.28;5039865;28;20061;-65
2021/11/20 09:30:07;;;;;;;14.82;8.70;;;;;;;15.36;58.13;102068.97;5049694;28;20067;-64
2021/11/20 09:32:34;;;;;;;11.18;7.85;;;;;;;15.02;59.37;102078.91;5054626;28;20045;-64
2021/11/20 09:35:13;;;;;;;13.32;7.75;;;;;;;15.12;58.92;102071.19;5038866;28;20060;-64
2021/11/20 09:37:57;;;;;;;23.13;16.67;;;;;;;14.40;60.53;102072.94;5042434;28;20411;-65
2021/11/20 09:40:28;;;;;;;14.13;9.82;;;;;;;14.06;61.36;102072.44;5062240;28;20049;-65
2021/11/20 09:43:01;;;;;;;13.82;8.45;;;;;;;14.03;61.92;102075.84;5063599;28;20050;-64
2021/11/20 09:45:35;;;;;;;13.40;8.15;;;;;;;14.65;60.47;102061.38;5039686;28;20132;-64
2021/11/20 09:48:25;;;;;;;13.80;9.02;;;;;;;14.43;59.26;102052.94;5038627;28;20049;-64
2021/11/20 09:51:04;;;;;;;14.05;10.10;;;;;;;14.75;60.01;102062.31;5040539;28;20045;-64
2021/11/20 09:53:32;;;;;;;12.75;9.02;;;;;;;15.11;59.18;102060.41;5046998;28;20128;-65
2021/11/20 09:56:04;;;;;;;14.90;9.75;;;;;;;15.30;58.62;102059.13;5037520;28;20076;-63
2021/11/20 09:58:36;;;;;;;17.33;10.55;;;;;;;15.33;58.58;102054.91;5049070;28;20041;-62
2021/11/20 10:01:31;;;;;;;18.95;11.25;;;;;;;15.39;57.77;102050.88;5051180;28;20373;-63
2021/11/20 10:04:02;;;;;;;16.85;11.85;;;;;;;15.06;59.29;102052.19;5050444;28;20064;-63
2021/11/20 10:06:33;;;;;;;;;;;;;;;15.40;57.84;102041.44;5056718;28;20056;-62
2021/11/20 10:09:16;;;;;;;17.02;11.13;;;;;;;15.14;58.50;102049.50;5043278;28;19921;-63
2021/11/20 10:11:58;;;;;;;19.17;13.05;;;;;;;14.96;59.04;102044.91;5053265;28;20060;-63
2021/11/20 10:14:35;;;;;;;18.60;12.63;;;;;;;14.92;58.74;102045.84;5048819;28;20049;-62
2021/11/20 10:17:30;;;;;;;17.98;13.13;;;;;;;15.06;58.76;102036.38;5044556;28;20504;-63
2021/11/20 10:20:18;;;;;;;19.15;14.52;;;;;;;14.41;60.25;102037.72;5050091;28;20544;-62
2021/11/20 10:22:51;;;;;;;20.08;14.25;;;;;;;14.11;61.39;102041.03;5037657;28;20444;-63
2021/11/20 10:25:38;;;;;;;21.25;14.27;;;;;;;14.38;60.58;102035.59;5042462;28;20049;-62
2021/11/20 10:28:12;;;;;;;16.38;12.20;;;;;;;14.94;59.06;102040.81;5041504;28;20634;-62
2021/11/20 10:31:04;;;;;;;18.08;12.15;;;;;;;14.65;59.41;102033.63;5079302;28;20042;-62
2021/11/20 10:33:42;;;;;;;21.17;15.07;;;;;;;14.34;61.54;102026.22;5042669;28;20049;-64
2021/11/20 10:36:32;;;;;;;23.85;16.27;;;;;;;14.59;60.27;102011.88;5042815;28;20057;-62
2021/11/20 10:39:11;;;;;;;28.17;17.52;;;;;;;15.18;58.84;102006.13;5046658;28;20052;-61
2021/11/20 10:41:43;;;;;;;22.27;16.47;;;;;;;14.39;60.17;102013.09;5059078;28;20045;-62
2021/11/20 10:44:22;;;;;;;22.25;16.65;;;;;;;13.92;61.94;102012.56;5037943;28;20064;-61
2021/11/20 10:47:02;;;;;;;23.75;16.42;;;;;;;14.71;59.93;102011.34;5044314;28;20049;-62
2021/11/20 10:49:38;;;;;;;21.58;15.18;;;;;;;15.11;59.14;101999.34;5047438;28;20053;-63
2021/11/20 10:52:10;;;;;;;20.48;14.82;;;;;;;15.44;57.88;101993.31;5053580;28;20041;-63
2021/11/20 10:54:51;;;;;;;21.13;15.43;;;;;;;15.34;57.77;101992.69;5042983;28;20060;-62
2021/11/20 10:57:37;;;;;;;24.40;14.45;;;;;;;15.61;57.04;101984.25;5043568;28;20057;-62
2021/11/20 11:00:19;;;;;;;22.63;14.25;;;;;;;15.29;57.75;101976.16;5037123;28;20045;-62
2021/11/20 11:03:16;;;;;;;17.92;13.43;;;;;;;14.42;58.61;101987.53;5046715;28;20060;-62
2021/11/20 11:06:08;;;;;;;16.65;12.00;;;;;;;14.78;58.96;101979.28;5041272;28;20072;-64
2021/11/20 11:08:48;;;;;;;18.60;12.23;;;;;;;14.81;58.92;101972.28;5040751;28;20057;-63
2021/11/20 11:11:38;;;;;;;18.00;13.73;;;;;;;14.88;59.07;101964.34;5035283;28;20056;-62
2021/11/20 11:14:15;;;;;;;16.65;12.73;;;;;;;14.66;59.72;101965.94;5040552;28;20056;-61
2021/11/20 11:16:49;;;;;;;18.25;12.27;;;;;;;14.77;59.05;101961.00;5036625;28;20053;-61
2021/11/20 11:19:22;;;;;;;17.67;12.15;;;;;;;14.77;59.19;101949.91;5049145;28;20040;-62
2021/11/20 11:21:58;;;;;;;16.00;11.90;;;;;;;14.61;59.84;101946.63;5045145;28;20137;-61
2021/11/20 11:24:29;;;;;;;18.17;12.48;;;;;;;14.66;58.56;101946.53;5040406;28;20053;-63
2021/11/20 11:27:22;;;;;;;17.92;12.50;;;;;;;14.90;60.04;101940.72;5053504;28;20073;-62
2021/11/20 11:29:55;;;;;;;16.77;12.75;;;;;;;14.95;59.58;101929.50;5035460;28;20472;-62
2021/11/20 11:32:23;;;;;;;15.60;12.38;;;;;;;15.08;59.33;101925.84;5043246;28;20160;-64
2021/11/20 11:34:55;;;;;;;18.25;13.15;;;;;;;14.91;59.13;101922.09;5049501;28;20072;-63
2021/11/20 11:37:44;;;;;;;20.73;15.10;;;;;;;15.08;59.83;101900.09;5053122;28;20041;-62
2021/11/20 11:40:30;;;;;;;21.95;16.95;;;;;;;14.78;59.71;101901.63;5057081;28;20416;-62
2021/11/20 11:43:23;;;;;;;26.48;17.15;;;;;;;15.00;60.25;101901.63;5046531;28;20144;-63
2021/11/20 11:46:07;;;;;;;25.63;17.83;;;;;;;15.36;nan;101901.59;5036667;28;20064;-61
2021/11/20 11:48:56;;;;;;;25.27;18.92;;;;;;;15.32;59.57;101889.47;5050648;28;20041;-61
2021/11/20 11:51:39;;;;;;;22.15;16.05;;;;;;;14.95;60.10;101892.63;5047878;28;20053;-61
2021/11/20 11:54:12;;;;;;;23.95;16.63;;;;;;;14.73;61.69;101882.34;5064620;28;20053;-61
2021/11/20 11:56:42;;;;;;;23.05;16.33;;;;;;;15.03;61.08;101889.09;5041962;28;20068;-62